Time;durP1;ratioP1;P1;durP2;ratioP2;P2;SDS_P1;SDS_P2;PMS_P1;PMS_P2;Temp;Humidity;BMP_temperature;BMP_pressure;BME280_temperature;BME280_humidity;BME280_pressure;Samples;Min_cycle;Max_cycle;Signal;HPM_P1;HPM_P2
2022/08/31 00:05:29;;;;;;;;;;;;;;;;;;5019099;28;19913;-75
2022/08/31 00:07:54;;;;;;;;;;;;;;;;;;5027271;28;19905;-76
2022/08/31 00:10:19;;;;;;;;;;;;;;;;;;5027546;28;19916;-75
2022/08/31 00:12:45;;;;;;;;;;;;;;;;;;5027564;28;19927;-77
2022/08/31 00:15:10;;;;;;;;;;;;;;;;;;5028085;28;19909;-77
2022/08/31 00:17:35;;;;;;;;;;;;;;;;;;5027082;28;20043;-76
2022/08/31 00:20:00;;;;;;;;;;;;;;;;;;5026306;28;20318;-77
2022/08/31 00:22:25;;;;;;;;;;;;;;;;;;5027096;28;19909;-75
2022/08/31 00:24:51;;;;;;;;;;;;;;;;;;5027717;28;19917;-77
2022/08/31 00:27:16;;;;;;;;;;;;;;;;;;5026650;28;19905;-76
2022/08/31 00:29:41;;;;;;;;;;;;;;;;;;5018285;28;20128;-76
2022/08/31 00:32:06;;;;;;;;;;;;;;;;;;5026885;28;19905;-76
2022/08/31 00:34:31;;;;;;;;;;;;;;;;;;5027037;28;19912;-76
2022/08/31 00:36:58;;;;;;;;;;;;;;;;;;5018672;28;19956;-76
2022/08/31 00:39:24;;;;;;;;;;;;;;;;;;5026075;28;20761;-76
2022/08/31 00:41:49;;;;;;;;;;;;;;;;;;5026175;28;19992;-76
2022/08/31 00:44:14;;;;;;;;;;;;;;;;;;5017781;28;19913;-76
2022/08/31 00:46:39;;;;;;;;;;;;;;;;;;5026381;28;19985;-76
2022/08/31 00:49:05;;;;;;;;;;;;;;;;;;5016414;28;20287;-77
2022/08/31 00:51:30;;;;;;;;;;;;;;;;;;5018473;28;19905;-76
2022/08/31 00:53:55;;;;;;;;;;;;;;;;;;5028076;28;20325;-76
2022/08/31 00:56:20;;;;;;;;;;;;;;;;;;5018182;28;19905;-76
2022/08/31 00:58:45;;;;;;;;;;;;;;;;;;5027350;28;19934;-76
2022/08/31 01:01:11;;;;;;;;;;;;;;;;;;5026408;28;19940;-76
2022/08/31 01:03:36;;;;;;;;;;;;;;;;;;5018459;28;19965;-76
2022/08/31 01:06:01;;;;;;;;;;;;;;;;;;5017496;28;19912;-77
2022/08/31 01:08:26;;;;;;;;;;;;;;;;;;5021653;28;19909;-77
2022/08/31 01:10:51;;;;;;;;;;;;;;;;;;5025397;28;20003;-76
2022/08/31 01:13:18;;;;;;;;;;;;;;;;;;5017711;28;19909;-76
2022/08/31 01:15:44;;;;;;;;;;;;;;;;;;5023601;28;19909;-76
2022/08/31 01:18:09;;;;;;;;;;;;;;;;;;5025796;28;20325;-75
2022/08/31 01:20:34;;;;;;;;;;;;;;;;;;5025505;28;19913;-77
2022/08/31 01:22:59;;;;;;;;;;;;;;;;;;5017681;28;20047;-75
2022/08/31 01:25:24;;;;;;;;;;;;;;;;;;5025910;28;19905;-76
2022/08/31 01:27:49;;;;;;;;;;;;;;;;;;5025329;28;19924;-76
2022/08/31 01:30:15;;;;;;;;;;;;;;;;;;5026156;28;19905;-76
2022/08/31 01:32:40;;;;;;;;;;;;;;;;;;5026860;28;20532;-76
2022/08/31 01:35:06;;;;;;;;;;;;;;;;;;5017554;28;19905;-76
2022/08/31 01:37:31;;;;;;;;;;;;;;;;;;5017914;28;20000;-76
2022/08/31 01:39:57;;;;;;;;;;;;;;;;;;5025528;28;20047;-76
2022/08/31 01:42:22;;;;;;;;;;;;;;;;;;5025770;28;19935;-76
2022/08/31 01:44:47;;;;;;;;;;;;;;;;;;5026278;28;19913;-76
2022/08/31 01:47:12;;;;;;;;;;;;;;;;;;5017571;28;20018;-75
2022/08/31 01:49:37;;;;;;;;;;;;;;;;;;5025181;28;19905;-76
2022/08/31 01:52:02;;;;;;;;;;;;;;;;;;5017030;28;19992;-76
2022/08/31 01:54:28;;;;;;;;;;;;;;;;;;5025063;28;19983;-76
2022/08/31 01:56:53;;;;;;;;;;;;;;;;;;5017583;28;20464;-77
2022/08/31 01:59:27;;;;;;;;;;;;;;;;;;5018809;28;19909;-76
2022/08/31 02:02:02;;;;;;;;;;;;;;;;;;5019002;28;20501;-76
2022/08/31 02:04:27;;;;;;;;;;;;;;;;;;5025642;28;19996;-77
2022/08/31 02:06:54;;;;;;;;;;;;;;;;;;5025209;28;20784;-76
2022/08/31 02:09:19;;;;;;;;;;;;;;;;;;5025308;28;19912;-77
2022/08/31 02:11:44;;;;;;;;;;;;;;;;;;5024857;28;19905;-76
2022/08/31 02:14:09;;;;;;;;;;;;;;;;;;5018400;28;19948;-76
2022/08/31 02:16:35;;;;;;;;;;;;;;;;;;5017526;28;19905;-75
2022/08/31 02:19:00;;;;;;;;;;;;;;;;;;5017668;28;19943;-75
2022/08/31 02:21:25;;;;;;;;;;;;;;;;;;5025631;28;19905;-76
2022/08/31 02:23:50;;;;;;;;;;;;;;;;;;5017035;28;19909;-76
2022/08/31 02:26:15;;;;;;;;;;;;;;;;;;5025379;28;19916;-76
2022/08/31 02:28:43;;;;;;;;;;;;;;;;;;5011251;28;19910;-76
2022/08/31 02:31:08;;;;;;;;;;;;;;;;;;5028430;28;19935;-76
2022/08/31 02:33:42;;;;;;;;;;;;;;;;;;5029309;28;20416;-76
2022/08/31 02:36:07;;;;;;;;;;;;;;;;;;5020654;28;20000;-76
2022/08/31 02:38:33;;;;;;;;;;;;;;;;;;5020198;28;20049;-76
2022/08/31 02:40:58;;;;;;;;;;;;;;;;;;5019761;28;19909;-76
2022/08/31 02:43:23;;;;;;;;;;;;;;;;;;5028628;28;19956;-75
2022/08/31 02:45:48;;;;;;;;;;;;;;;;;;5029428;28;19920;-76
2022/08/31 02:48:19;;;;;;;;;;;;;;;;;;5028750;28;19919;-77
2022/08/31 02:50:44;;;;;;;;;;;;;;;;;;5016167;28;20533;-75
2022/08/31 02:53:09;;;;;;;;;;;;;;;;;;5027083;28;19905;-75
2022/08/31 02:55:35;;;;;;;;;;;;;;;;;;5020580;28;19979;-75
2022/08/31 02:58:00;;;;;;;;;;;;;;;;;;5020133;28;19905;-76
2022/08/31 03:00:25;;;;;;;;;;;;;;;;;;5028023;28;19935;-75
2022/08/31 03:02:50;;;;;;;;;;;;;;;;;;5029365;28;19931;-76
2022/08/31 03:05:15;;;;;;;;;;;;;;;;;;5028924;28;19916;-76
2022/08/31 03:07:41;;;;;;;;;;;;;;;;;;5029838;28;19905;-76
2022/08/31 03:10:06;;;;;;;;;;;;;;;;;;5029870;28;20377;-76
2022/08/31 03:12:32;;;;;;;;;;;;;;;;;;5027986;28;19905;-77
2022/08/31 03:14:57;;;;;;;;;;;;;;;;;;5019823;28;19912;-76
2022/08/31 03:17:22;;;;;;;;;;;;;;;;;;5020229;28;19931;-76
2022/08/31 03:19:47;;;;;;;;;;;;;;;;;;5020302;28;19912;-76
2022/08/31 03:22:14;;;;;;;;;;;;;;;;;;5028186;28;19912;-76
2022/08/31 03:24:40;;;;;;;;;;;;;;;;;;5020676;28;20321;-75
2022/08/31 03:27:05;;;;;;;;;;;;;;;;;;5020262;28;19928;-76
2022/08/31 03:29:30;;;;;;;;;;;;;;;;;;5028520;28;19951;-76
2022/08/31 03:31:55;;;;;;;;;;;;;;;;;;5028439;28;19905;-77
2022/08/31 03:34:22;;;;;;;;;;;;;;;;;;5027889;28;19929;-76
2022/08/31 03:36:47;;;;;;;;;;;;;;;;;;5028061;28;19905;-76
2022/08/31 03:39:12;;;;;;;;;;;;;;;;;;5018666;28;19920;-76
2022/08/31 03:41:38;;;;;;;;;;;;;;;;;;5027425;28;19909;-76
2022/08/31 03:44:04;;;;;;;;;;;;;;;;;;5019294;28;20344;-76
2022/08/31 03:46:30;;;;;;;;;;;;;;;;;;5012896;28;19905;-78
2022/08/31 03:48:56;;;;;;;;;;;;;;;;;;5027690;28;20450;-77
2022/08/31 03:51:21;;;;;;;;;;;;;;;;;;5018851;28;19992;-76
2022/08/31 03:53:46;;;;;;;;;;;;;;;;;;5019346;28;20015;-78
2022/08/31 03:56:16;;;;;;;;;;;;;;;;;;5016404;28;20392;-77
2022/08/31 03:58:41;;;;;;;;;;;;;;;;;;5027325;28;19943;-77
2022/08/31 04:01:07;;;;;;;;;;;;;;;;;;5018572;28;19984;-76
2022/08/31 04:04:04;;;;;;;;;;;;;;;;;;5028130;28;19935;-76
2022/08/31 04:06:58;;;;;;;;;;;;;;;;;;4970208;28;19925;-76
2022/08/31 04:10:02;;;;;;;;;;;;;;;;;;5027608;28;19928;-77
2022/08/31 04:12:50;;;;;;;;;;;;;;;;;;5012301;28;19959;-76
2022/08/31 04:15:46;;;;;;;;;;;;;;;;;;5027175;28;19909;-76
2022/08/31 04:18:50;;;;;;;;;;;;;;;;;;4992605;28;20347;-76
2022/08/31 04:21:15;;;;;;;;;;;;;;;;;;4978011;28;19909;-75
2022/08/31 04:23:41;;;;;;;;;;;;;;;;;;4978005;28;20074;-76
2022/08/31 04:26:06;;;;;;;;;;;;;;;;;;4978090;28;19917;-76
2022/08/31 04:28:31;;;;;;;;;;;;;;;;;;4994358;28;19906;-75
2022/08/31 04:30:57;;;;;;;;;;;;;;;;;;4977961;28;19933;-75
2022/08/31 04:33:22;;;;;;;;;;;;;;;;;;4978592;28;20338;-75
2022/08/31 04:35:47;;;;;;;;;;;;;;;;;;4978443;28;19910;-76
2022/08/31 04:38:13;;;;;;;;;;;;;;;;;;4978257;28;20674;-76
2022/08/31 04:40:40;;;;;;;;;;;;;;;;;;4994001;28;19913;-75
2022/08/31 04:43:05;;;;;;;;;;;;;;;;;;4993977;28;19916;-76
2022/08/31 04:45:30;;;;;;;;;;;;;;;;;;4994801;28;20434;-76
2022/08/31 04:47:56;;;;;;;;;;;;;;;;;;4994418;28;19906;-76
2022/08/31 04:50:21;;;;;;;;;;;;;;;;;;5020415;28;20568;-76
2022/08/31 04:53:04;;;;;;;;;;;;;;;;;;5016937;28;19908;-77
2022/08/31 04:55:29;;;;;;;;;;;;;;;;;;5027047;28;20397;-76
2022/08/31 04:57:55;;;;;;;;;;;;;;;;;;5027109;28;19909;-77
2022/08/31 05:00:21;;;;;;;;;;;;;;;;;;5026021;28;19913;-76
2022/08/31 05:03:01;;;;;;;;;;;;;;;;;;5028220;28;19912;-76
2022/08/31 05:05:26;;;;;;;;;;;;;;;;;;5026711;28;19909;-77
2022/08/31 05:07:52;;;;;;;;;;;;;;;;;;5026045;28;19908;-76
2022/08/31 05:10:17;;;;;;;;;;;;;;;;;;5018372;28;19947;-76
2022/08/31 05:12:43;;;;;;;;;;;;;;;;;;5026161;28;19908;-75
2022/08/31 05:15:09;;;;;;;;;;;;;;;;;;5026667;28;19959;-75
2022/08/31 05:17:35;;;;;;;;;;;;;;;;;;5018213;28;19948;-76
2022/08/31 05:20:00;;;;;;;;;;;;;;;;;;5025453;28;19912;-76
2022/08/31 05:22:26;;;;;;;;;;;;;;;;;;5026240;28;20413;-76
2022/08/31 05:24:54;;;;;;;;;;;;;;;;;;5025759;28;19920;-76
2022/08/31 05:27:19;;;;;;;;;;;;;;;;;;5026266;28;19905;-76
2022/08/31 05:29:44;;;;;;;;;;;;;;;;;;5025162;28;20424;-75
2022/08/31 05:32:39;;;;;;;;;;;;;;;;;;5000160;28;20224;-76
2022/08/31 05:35:04;;;;;;;;;;;;;;;;;;4997639;28;19941;-75
2022/08/31 05:37:29;;;;;;;;;;;;;;;;;;4990037;28;19905;-75
2022/08/31 05:39:55;;;;;;;;;;;;;;;;;;4997146;28;19918;-76
2022/08/31 05:42:20;;;;;;;;;;;;;;;;;;4998924;28;20028;-76
2022/08/31 05:44:46;;;;;;;;;;;;;;;;;;5003841;28;20391;-76
2022/08/31 05:47:11;;;;;;;;;;;;;;;;;;4989256;28;19999;-75
2022/08/31 05:49:37;;;;;;;;;;;;;;;;;;4987053;28;19913;-76
2022/08/31 05:52:04;;;;;;;;;;;;;;;;;;4987267;28;20015;-75
2022/08/31 05:54:29;;;;;;;;;;;;;;;;;;5003746;28;19913;-77
2022/08/31 05:56:54;;;;;;;;;;;;;;;;;;4977783;28;19913;-77
2022/08/31 05:59:19;;;;;;;;;;;;;;;;;;4994786;28;19921;-78
2022/08/31 06:01:44;;;;;;;;;;;;;;;;;;4986720;28;20359;-77
2022/08/31 06:04:24;;;;;;;;;;;;;;;;;;4997660;28;20060;-78
2022/08/31 06:06:49;;;;;;;;;;;;;;;;;;4986956;28;20176;-78
2022/08/31 06:09:17;;;;;;;;;;;;;;;;;;5016767;28;19905;-77
2022/08/31 06:11:43;;;;;;;;;;;;;;;;;;5011624;28;19924;-77
2022/08/31 06:14:12;;;;;;;;;;;;;;;;;;5024261;28;19913;-77
2022/08/31 06:16:38;;;;;;;;;;;;;;;;;;5023387;28;19913;-79
2022/08/31 06:19:05;;;;;;;;;;;;;;;;;;5024070;28;19967;-77
2022/08/31 06:21:32;;;;;;;;;;;;;;;;;;5008283;28;19909;-77
2022/08/31 06:23:58;;;;;;;;;;;;;;;;;;5023035;28;19905;-78
2022/08/31 06:26:23;;;;;;;;;;;;;;;;;;5024214;28;20040;-78
2022/08/31 06:28:49;;;;;;;;;;;;;;;;;;5023264;28;19940;-79
2022/08/31 06:31:15;;;;;;;;;;;;;;;;;;5016842;28;19909;-78
2022/08/31 06:33:41;;;;;;;;;;;;;;;;;;5023998;28;19905;-77
2022/08/31 06:36:14;;;;;;;;;;;;;;;;;;5030204;28;19917;-78
2022/08/31 06:39:00;;;;;;;;;;;;;;;;;;5014486;28;20397;-78
2022/08/31 06:42:01;;;;;;;;;;;;;;;;;;4993561;28;19941;-77
2022/08/31 06:44:54;;;;;;;;;;;;;;;;;;5027079;28;19921;-78
2022/08/31 06:47:24;;;;;;;;;;;;;;;;;;5023835;28;20347;-79
2022/08/31 06:49:51;;;;;;;;;;;;;;;;;;5013639;28;19913;-77
2022/08/31 06:52:16;;;;;;;;;;;;;;;;;;5016974;28;19959;-77
2022/08/31 06:54:44;;;;;;;;;;;;;;;;;;5024091;28;20416;-78
2022/08/31 06:57:28;;;;;;;;;;;;;;;;;;5026275;28;19951;-80
2022/08/31 06:59:59;;;;;;;;;;;;;;;;;;5023506;28;19936;-79
2022/08/31 07:02:31;;;;;;;;;;;;;;;;;;5023824;28;19956;-80
2022/08/31 07:04:56;;;;;;;;;;;;;;;;;;5023745;28;19980;-78
2022/08/31 07:07:22;;;;;;;;;;;;;;;;;;5017131;28;19932;-78
2022/08/31 07:09:48;;;;;;;;;;;;;;;;;;5012596;28;19921;-78
2022/08/31 07:12:13;;;;;;;;;;;;;;;;;;5025390;28;19909;-79
2022/08/31 07:14:39;;;;;;;;;;;;;;;;;;5024014;28;19936;-79
2022/08/31 07:17:06;;;;;;;;;;;;;;;;;;5020501;28;19916;-79
2022/08/31 07:19:31;;;;;;;;;;;;;;;;;;5026722;28;19913;-78
2022/08/31 07:21:57;;;;;;;;;;;;;;;;;;5023970;28;19912;-78
2022/08/31 07:24:23;;;;;;;;;;;;;;;;;;5027122;28;19913;-79
2022/08/31 07:26:48;;;;;;;;;;;;;;;;;;5016171;28;20362;-79
2022/08/31 07:29:19;;;;;;;;;;;;;;;;;;5026473;28;20031;-79
2022/08/31 07:31:47;;;;;;;;;;;;;;;;;;5027976;28;19916;-77
2022/08/31 07:34:14;;;;;;;;;;;;;;;;;;5023626;28;19955;-81
2022/08/31 07:42:20;;;;;;;;;;;;;;;;;;5026876;28;19909;-79
2022/08/31 07:44:45;;;;;;;;;;;;;;;;;;5026567;28;19913;-78
2022/08/31 07:47:11;;;;;;;;;;;;;;;;;;5019773;28;19909;-78
2022/08/31 07:49:36;;;;;;;;;;;;;;;;;;5016663;28;19905;-78
2022/08/31 07:52:07;;;;;;;;;;;;;;;;;;5037675;28;19920;-78
2022/08/31 07:54:45;;;;;;;;;;;;;;;;;;5030826;28;19963;-78
2022/08/31 07:57:30;;;;;;;;;;;;;;;;;;5031396;28;19932;-78
2022/08/31 08:00:07;;;;;;;;;;;;;;;;;;5017451;28;19979;-78
2022/08/31 08:02:39;;;;;;;;;;;;;;;;;;5032441;28;19915;-77
2022/08/31 08:05:06;;;;;;;;;;;;;;;;;;5031309;28;19916;-78
2022/08/31 08:07:57;;;;;;;;;;;;;;;;;;5003617;28;19927;-78
2022/08/31 08:10:34;;;;;;;;;;;;;;;;;;5031236;28;19917;-78
2022/08/31 08:13:25;;;;;;;;;;;;;;;;;;5026773;28;19909;-78
2022/08/31 08:16:04;;;;;;;;;;;;;;;;;;5027933;28;19952;-78
2022/08/31 08:18:48;;;;;;;;;;;;;;;;;;5030676;28;19944;-78
2022/08/31 08:21:17;;;;;;;;;;;;;;;;;;5023735;28;19920;-78
2022/08/31 08:23:42;;;;;;;;;;;;;;;;;;5017920;28;19909;-78
2022/08/31 08:26:22;;;;;;;;;;;;;;;;;;5031261;28;19931;-78
2022/08/31 08:29:03;;;;;;;;;;;;;;;;;;5031237;28;19932;-78
2022/08/31 08:31:28;;;;;;;;;;;;;;;;;;5019284;28;19921;-78
2022/08/31 08:33:53;;;;;;;;;;;;;;;;;;5029439;28;19951;-77
2022/08/31 08:36:18;;;;;;;;;;;;;;;;;;5031386;28;19940;-78
2022/08/31 08:38:46;;;;;;;;;;;;;;;;;;5018898;28;19912;-78
2022/08/31 08:41:11;;;;;;;;;;;;;;;;;;5029991;28;19959;-79
2022/08/31 08:43:37;;;;;;;;;;;;;;;;;;5016675;28;20378;-78
2022/08/31 08:46:02;;;;;;;;;;;;;;;;;;5030664;28;19908;-78
2022/08/31 08:48:28;;;;;;;;;;;;;;;;;;5026778;28;20419;-78
2022/08/31 08:50:53;;;;;;;;;;;;;;;;;;5031157;28;19956;-78
2022/08/31 08:53:27;;;;;;;;;;;;;;;;;;5029982;28;19913;-78
2022/08/31 08:56:07;;;;;;;;;;;;;;;;;;5027188;28;19978;-79
2022/08/31 08:58:34;;;;;;;;;;;;;;;;;;5015577;28;20445;-78
2022/08/31 09:01:00;;;;;;;;;;;;;;;;;;5026102;28;20351;-81
2022/08/31 09:03:29;;;;;;;;;;;;;;;;;;5028524;28;20370;-80
2022/08/31 09:06:15;;;;;;;;;;;;;;;;;;4999972;28;20270;-79
2022/08/31 09:08:43;;;;;;;;;;;;;;;;;;5017222;28;19917;-79
2022/08/31 09:11:10;;;;;;;;;;;;;;;;;;5022662;28;20370;-78
2022/08/31 09:13:36;;;;;;;;;;;;;;;;;;5015511;28;20377;-80
2022/08/31 09:16:04;;;;;;;;;;;;;;;;;;5042578;28;19913;-78
2022/08/31 09:18:31;;;;;;;;;;;;;;;;;;5029017;28;19932;-80
2022/08/31 09:21:01;;;;;;;;;;;;;;;;;;5020838;28;20380;-79
2022/08/31 09:23:26;;;;;;;;;;;;;;;;;;5023156;28;19909;-80
2022/08/31 09:25:52;;;;;;;;;;;;;;;;;;5034221;28;20397;-79
2022/08/31 09:28:35;;;;;;;;;;;;;;;;;;5031938;28;19959;-80
2022/08/31 09:31:00;;;;;;;;;;;;;;;;;;5035197;28;19913;-79
2022/08/31 09:33:25;;;;;;;;;;;;;;;;;;5035350;28;19966;-80
2022/08/31 09:35:54;;;;;;;;;;;;;;;;;;5036128;28;20381;-79
2022/08/31 09:38:20;;;;;;;;;;;;;;;;;;5035008;28;19905;-79
2022/08/31 09:40:48;;;;;;;;;;;;;;;;;;5022425;28;20407;-80
2022/08/31 09:43:13;;;;;;;;;;;;;;;;;;5035951;28;19913;-80
2022/08/31 09:45:38;;;;;;;;;;;;;;;;;;5020260;28;19932;-80
2022/08/31 09:48:03;;;;;;;;;;;;;;;;;;5034117;28;19916;-80
2022/08/31 09:50:32;;;;;;;;;;;;;;;;;;5025742;28;19915;-80
2022/08/31 09:55:42;;;;;;;;;;;;;;;;;;5029386;28;19913;-78
2022/08/31 09:58:10;;;;;;;;;;;;;;;;;;5029059;28;19910;-78
2022/08/31 10:00:35;;;;;;;;;;;;;;;;;;5013055;28;19976;-79
2022/08/31 10:03:00;;;;;;;;;;;;;;;;;;5028014;28;20438;-80
2022/08/31 10:05:25;;;;;;;;;;;;;;;;;;5026226;28;20389;-79
2022/08/31 10:07:50;;;;;;;;;;;;;;;;;;5029363;28;19912;-79
2022/08/31 10:10:16;;;;;;;;;;;;;;;;;;5029869;28;19915;-79
2022/08/31 10:12:42;;;;;;;;;;;;;;;;;;5028926;28;19936;-79
2022/08/31 10:15:07;;;;;;;;;;;;;;;;;;5023123;28;19913;-79
2022/08/31 10:17:33;;;;;;;;;;;;;;;;;;5015902;28;19921;-79
2022/08/31 10:20:04;;;;;;;;;;;;;;;;;;5037685;28;19917;-80
2022/08/31 10:22:29;;;;;;;;;;;;;;;;;;5029501;28;19944;-78
2022/08/31 10:24:55;;;;;;;;;;;;;;;;;;5030608;28;19909;-79
2022/08/31 10:27:20;;;;;;;;;;;;;;;;;;5042875;28;20000;-79
2022/08/31 10:29:46;;;;;;;;;;;;;;;;;;5015169;28;19997;-79
2022/08/31 10:32:11;;;;;;;;;;;;;;;;;;5026197;28;19909;-79
2022/08/31 10:37:23;;;;;;;;;;;;;;;;;;5023941;28;19909;-79
2022/08/31 10:39:48;;;;;;;;;;;;;;;;;;5012219;28;19995;-79
2022/08/31 10:42:13;;;;;;;;;;;;;;;;;;5030710;28;19971;-79
2022/08/31 10:44:39;;;;;;;;;;;;;;;;;;5024358;28;19919;-79
2022/08/31 10:47:04;;;;;;;;;;;;;;;;;;5025659;28;19940;-79
2022/08/31 10:49:29;;;;;;;;;;;;;;;;;;5026085;28;19913;-79
2022/08/31 10:51:55;;;;;;;;;;;;;;;;;;5027965;28;19963;-78
2022/08/31 10:54:27;;;;;;;;;;;;;;;;;;5027724;28;19905;-79
2022/08/31 10:56:57;;;;;;;;;;;;;;;;;;5027142;28;20372;-78
2022/08/31 10:59:23;;;;;;;;;;;;;;;;;;5042805;28;19913;-79
2022/08/31 11:01:48;;;;;;;;;;;;;;;;;;5028971;28;19931;-78
2022/08/31 11:04:13;;;;;;;;;;;;;;;;;;5027485;28;19913;-78
2022/08/31 11:06:38;;;;;;;;;;;;;;;;;;5014402;28;20378;-79
2022/08/31 11:09:04;;;;;;;;;;;;;;;;;;5040472;28;19909;-78
2022/08/31 11:11:29;;;;;;;;;;;;;;;;;;5027254;28;19905;-78
2022/08/31 11:13:59;;;;;;;;;;;;;;;;;;5028800;28;20282;-79
2022/08/31 11:16:25;;;;;;;;;;;;;;;;;;5028782;28;20357;-78
2022/08/31 11:18:50;;;;;;;;;;;;;;;;;;5019235;28;19905;-79
2022/08/31 11:21:16;;;;;;;;;;;;;;;;;;5027661;28;19909;-79
2022/08/31 11:23:41;;;;;;;;;;;;;;;;;;5015084;28;20363;-78
2022/08/31 11:26:06;;;;;;;;;;;;;;;;;;5028350;28;19909;-77
2022/08/31 11:28:32;;;;;;;;;;;;;;;;;;5028317;28;20366;-78
2022/08/31 11:31:00;;;;;;;;;;;;;;;;;;5026679;28;19992;-78
2022/08/31 11:33:27;;;;;;;;;;;;;;;;;;5027381;28;19905;-79
2022/08/31 11:38:25;;;;;;;;;;;;;;;;;;5027104;28;19916;-79
2022/08/31 11:40:50;;;;;;;;;;;;;;;;;;5016548;28;20016;-79
2022/08/31 11:43:17;;;;;;;;;;;;;;;;;;5027797;28;20016;-79
2022/08/31 11:45:42;;;;;;;;;;;;;;;;;;5027272;28;19905;-78
2022/08/31 11:48:08;;;;;;;;;;;;;;;;;;5020820;28;20336;-78
2022/08/31 11:50:34;;;;;;;;;;;;;;;;;;5027734;28;20148;-79
2022/08/31 11:52:59;;;;;;;;;;;;;;;;;;5026668;28;20337;-80
2022/08/31 11:55:26;;;;;;;;;;;;;;;;;;5022383;28;20184;-79
2022/08/31 11:57:54;;;;;;;;;;;;;;;;;;5026939;28;19909;-79
2022/08/31 12:00:19;;;;;;;;;;;;;;;;;;5026708;28;19909;-79
2022/08/31 12:02:45;;;;;;;;;;;;;;;;;;5026742;28;20367;-79
2022/08/31 12:05:10;;;;;;;;;;;;;;;;;;5019649;28;19955;-78
2022/08/31 12:07:35;;;;;;;;;;;;;;;;;;5027658;28;20003;-79
2022/08/31 12:10:00;;;;;;;;;;;;;;;;;;5027453;28;19911;-78
2022/08/31 12:12:26;;;;;;;;;;;;;;;;;;5019196;28;19912;-79
2022/08/31 12:14:51;;;;;;;;;;;;;;;;;;5026098;28;19967;-78
2022/08/31 12:17:20;;;;;;;;;;;;;;;;;;5026491;28;20008;-79
2022/08/31 12:20:00;;;;;;;;;;;;;;;;;;5025929;28;19909;-78
2022/08/31 12:25:10;;;;;;;;;;;;;;;;;;5024813;28;19909;-78
2022/08/31 12:27:35;;;;;;;;;;;;;;;;;;5010723;28;20421;-78
2022/08/31 12:30:00;;;;;;;;;;;;;;;;;;5005317;28;20058;-79
2022/08/31 12:32:25;;;;;;;;;;;;;;;;;;5023852;28;19928;-79
2022/08/31 12:34:51;;;;;;;;;;;;;;;;;;5026050;28;20003;-79
2022/08/31 12:37:16;;;;;;;;;;;;;;;;;;5027056;28;19932;-78
2022/08/31 12:39:41;;;;;;;;;;;;;;;;;;5026629;28;19913;-78
2022/08/31 12:42:06;;;;;;;;;;;;;;;;;;5025670;28;19911;-79
2022/08/31 12:44:31;;;;;;;;;;;;;;;;;;5025799;28;19920;-78
2022/08/31 12:46:56;;;;;;;;;;;;;;;;;;5017328;28;20036;-79
2022/08/31 12:49:22;;;;;;;;;;;;;;;;;;5025194;28;19909;-79
2022/08/31 12:51:47;;;;;;;;;;;;;;;;;;5026609;28;19915;-78
2022/08/31 12:54:12;;;;;;;;;;;;;;;;;;5025378;28;19990;-78
2022/08/31 12:56:37;;;;;;;;;;;;;;;;;;5022184;28;20457;-78
2022/08/31 12:59:02;;;;;;;;;;;;;;;;;;5026410;28;19916;-78
2022/08/31 13:01:27;;;;;;;;;;;;;;;;;;5007020;28;19909;-78
2022/08/31 13:03:53;;;;;;;;;;;;;;;;;;5025056;28;20386;-78
2022/08/31 13:06:18;;;;;;;;;;;;;;;;;;5018485;28;19909;-78
2022/08/31 13:08:43;;;;;;;;;;;;;;;;;;5025035;28;19917;-79
2022/08/31 13:11:08;;;;;;;;;;;;;;;;;;5026261;28;19909;-78
2022/08/31 13:13:33;;;;;;;;;;;;;;;;;;5025362;28;20333;-78
2022/08/31 13:15:59;;;;;;;;;;;;;;;;;;5025271;28;19905;-79
2022/08/31 13:18:24;;;;;;;;;;;;;;;;;;5018205;28;19916;-79
2022/08/31 13:20:49;;;;;;;;;;;;;;;;;;5026087;28;19923;-78
2022/08/31 13:23:14;;;;;;;;;;;;;;;;;;5009821;28;20107;-78
2022/08/31 13:25:40;;;;;;;;;;;;;;;;;;5026097;28;19905;-79
2022/08/31 13:28:06;;;;;;;;;;;;;;;;;;5018193;28;19909;-78
2022/08/31 13:30:33;;;;;;;;;;;;;;;;;;5024500;28;20002;-77
2022/08/31 13:32:58;;;;;;;;;;;;;;;;;;5024867;28;19916;-78
2022/08/31 13:35:23;;;;;;;;;;;;;;;;;;5017879;28;19913;-78
2022/08/31 13:37:59;;;;;;;;;;;;;;;;;;5025758;28;19920;-79
2022/08/31 13:40:24;;;;;;;;;;;;;;;;;;5024385;28;19921;-78
2022/08/31 13:42:49;;;;;;;;;;;;;;;;;;5024757;28;19905;-78
2022/08/31 13:45:14;;;;;;;;;;;;;;;;;;5024792;28;19913;-79
2022/08/31 13:47:40;;;;;;;;;;;;;;;;;;5026058;28;20006;-78
2022/08/31 13:50:09;;;;;;;;;;;;;;;;;;5024395;28;19909;-78
2022/08/31 13:52:34;;;;;;;;;;;;;;;;;;5025811;28;19913;-78
2022/08/31 13:54:59;;;;;;;;;;;;;;;;;;5024527;28;20378;-78
2022/08/31 13:57:28;;;;;;;;;;;;;;;;;;5024719;28;19920;-78
2022/08/31 13:59:53;;;;;;;;;;;;;;;;;;5020844;28;19920;-78
2022/08/31 14:02:20;;;;;;;;;;;;;;;;;;5021077;28;19932;-78
2022/08/31 14:04:49;;;;;;;;;;;;;;;;;;5011675;28;20012;-78
2022/08/31 14:07:18;;;;;;;;;;;;;;;;;;5023498;28;19936;-78
2022/08/31 14:09:44;;;;;;;;;;;;;;;;;;5023029;28;20413;-78
2022/08/31 14:12:09;;;;;;;;;;;;;;;;;;5023256;28;19906;-78
2022/08/31 14:14:39;;;;;;;;;;;;;;;;;;5024151;28;19916;-77
2022/08/31 14:17:04;;;;;;;;;;;;;;;;;;5021261;28;19917;-77
2022/08/31 14:19:29;;;;;;;;;;;;;;;;;;5023627;28;19916;-78
2022/08/31 14:21:54;;;;;;;;;;;;;;;;;;5024135;28;19909;-77
2022/08/31 14:24:19;;;;;;;;;;;;;;;;;;5027281;28;19916;-79
2022/08/31 14:26:44;;;;;;;;;;;;;;;;;;5029231;28;19909;-78
2022/08/31 14:29:10;;;;;;;;;;;;;;;;;;5029227;28;19975;-78
2022/08/31 14:31:38;;;;;;;;;;;;;;;;;;5028217;28;19913;-78
2022/08/31 14:34:06;;;;;;;;;;;;;;;;;;5017681;28;20382;-77
2022/08/31 14:36:32;;;;;;;;;;;;;;;;;;5028313;28;19932;-78
2022/08/31 14:38:57;;;;;;;;;;;;;;;;;;5028022;28;20378;-78
2022/08/31 14:41:22;;;;;;;;;;;;;;;;;;5029134;28;20263;-78
2022/08/31 14:43:47;;;;;;;;;;;;;;;;;;5028212;28;19912;-78
2022/08/31 14:46:14;;;;;;;;;;;;;;;;;;5040170;28;19920;-78
2022/08/31 14:48:41;;;;;;;;;;;;;;;;;;5029211;28;20373;-77
2022/08/31 14:51:07;;;;;;;;;;;;;;;;;;5027263;28;19909;-78
2022/08/31 14:53:35;;;;;;;;;;;;;;;;;;5028943;28;19912;-78
2022/08/31 14:56:01;;;;;;;;;;;;;;;;;;5019895;28;19909;-78
2022/08/31 14:58:26;;;;;;;;;;;;;;;;;;5020917;28;20015;-78
2022/08/31 15:00:51;;;;;;;;;;;;;;;;;;5028570;28;19955;-78
2022/08/31 15:03:16;;;;;;;;;;;;;;;;;;5028730;28;20281;-78
2022/08/31 15:05:41;;;;;;;;;;;;;;;;;;5028644;28;19909;-78
2022/08/31 15:08:07;;;;;;;;;;;;;;;;;;5027354;28;19905;-78
2022/08/31 15:10:32;;;;;;;;;;;;;;;;;;5026920;28;19909;-77
2022/08/31 15:13:07;;;;;;;;;;;;;;;;;;5027742;28;19919;-77
2022/08/31 15:15:32;;;;;;;;;;;;;;;;;;5034115;28;20374;-77
2022/08/31 15:17:59;;;;;;;;;;;;;;;;;;5034776;28;19955;-78
2022/08/31 15:20:24;;;;;;;;;;;;;;;;;;5034833;28;19967;-77
2022/08/31 15:22:49;;;;;;;;;;;;;;;;;;5032285;28;19908;-76
2022/08/31 15:25:14;;;;;;;;;;;;;;;;;;5033642;28;19936;-77
2022/08/31 15:27:42;;;;;;;;;;;;;;;;;;5020353;28;19913;-78
2022/08/31 15:30:08;;;;;;;;;;;;;;;;;;5033116;28;19913;-77
2022/08/31 15:32:34;;;;;;;;;;;;;;;;;;5035689;28;19920;-77
2022/08/31 15:34:59;;;;;;;;;;;;;;;;;;5033683;28;19913;-77
2022/08/31 15:37:26;;;;;;;;;;;;;;;;;;5025540;28;20366;-77
2022/08/31 15:39:51;;;;;;;;;;;;;;;;;;5034251;28;19913;-77
2022/08/31 15:42:19;;;;;;;;;;;;;;;;;;5031337;28;20180;-77
2022/08/31 15:44:44;;;;;;;;;;;;;;;;;;5020004;28;19945;-77
2022/08/31 15:49:54;;;;;;;;;;;;;;;;;;5032243;28;19916;-77
2022/08/31 15:52:19;;;;;;;;;;;;;;;;;;5032685;28;20104;-76
2022/08/31 15:54:45;;;;;;;;;;;;;;;;;;5030971;28;20042;-77
2022/08/31 15:57:10;;;;;;;;;;;;;;;;;;5029969;28;19905;-77
2022/08/31 15:59:36;;;;;;;;;;;;;;;;;;5029313;28;19913;-78
2022/08/31 16:02:01;;;;;;;;;;;;;;;;;;5030259;28;19921;-77
2022/08/31 16:04:26;;;;;;;;;;;;;;;;;;5030826;28;20356;-77
2022/08/31 16:06:51;;;;;;;;;;;;;;;;;;5031988;28;19905;-77
2022/08/31 16:09:17;;;;;;;;;;;;;;;;;;5024801;28;19909;-77
2022/08/31 16:11:42;;;;;;;;;;;;;;;;;;5028622;28;19909;-77
2022/08/31 16:14:10;;;;;;;;;;;;;;;;;;5022332;28;20188;-77
2022/08/31 16:16:36;;;;;;;;;;;;;;;;;;5028675;28;19909;-77
2022/08/31 16:19:04;;;;;;;;;;;;;;;;;;5027796;28;19913;-77
2022/08/31 16:21:29;;;;;;;;;;;;;;;;;;5024938;28;19905;-77
2022/08/31 16:24:00;;;;;;;;;;;;;;;;;;5029728;28;19916;-77
2022/08/31 16:26:25;;;;;;;;;;;;;;;;;;5020199;28;19955;-76
2022/08/31 16:28:51;;;;;;;;;;;;;;;;;;5018736;28;19936;-77
2022/08/31 16:31:16;;;;;;;;;;;;;;;;;;5022238;28;19913;-77
2022/08/31 16:33:42;;;;;;;;;;;;;;;;;;5027073;28;20437;-77
2022/08/31 16:36:07;;;;;;;;;;;;;;;;;;5038757;28;19914;-77
2022/08/31 16:38:32;;;;;;;;;;;;;;;;;;5027661;28;19913;-77
2022/08/31 16:40:57;;;;;;;;;;;;;;;;;;5029305;28;19924;-77
2022/08/31 16:43:23;;;;;;;;;;;;;;;;;;5029165;28;19979;-76
2022/08/31 16:45:48;;;;;;;;;;;;;;;;;;5016474;28;20013;-77
2022/08/31 16:51:00;;;;;;;;;;;;;;;;;;5028693;28;19909;-77
2022/08/31 16:53:27;;;;;;;;;;;;;;;;;;5029169;28;19991;-77
2022/08/31 16:55:52;;;;;;;;;;;;;;;;;;5028313;28;20437;-77
2022/08/31 16:58:17;;;;;;;;;;;;;;;;;;5029935;28;19984;-77
2022/08/31 17:00:42;;;;;;;;;;;;;;;;;;5028985;28;20337;-77
2022/08/31 17:03:08;;;;;;;;;;;;;;;;;;5028826;28;19908;-77
2022/08/31 17:05:33;;;;;;;;;;;;;;;;;;5028581;28;20408;-77
2022/08/31 17:07:58;;;;;;;;;;;;;;;;;;5030884;28;19908;-76
2022/08/31 17:10:23;;;;;;;;;;;;;;;;;;5027798;28;19913;-77
2022/08/31 17:12:49;;;;;;;;;;;;;;;;;;5028740;28;19948;-76